Time;durP1;ratioP1;P1;durP2;ratioP2;P2;SDS_P1;SDS_P2;PMS_P1;PMS_P2;Temp;Humidity;BMP_temperature;BMP_pressure;BME280_temperature;BME280_humidity;BME280_pressure;Samples;Min_cycle;Max_cycle;Signal;HPM_P1;HPM_P2
2022/07/30 00:01:33;;;;;;;;;;;;;;;27.72;42.10;98815.12;4391204;32;34203;-92
2022/07/30 00:04:02;;;;;;;;;;;;;;;27.61;42.39;98821.97;4377811;32;34941;-92
2022/07/30 00:06:30;;;;;;;;;;;;;;;28.27;41.02;98819.63;4392246;32;34636;-91
2022/07/30 00:08:57;;;;;;;;;;;;;;;27.94;41.74;98820.00;4392459;32;33843;-95
2022/07/30 00:11:25;;;;;;;;;;;;;;;27.40;42.97;98831.31;4391965;32;35150;-95
2022/07/30 00:13:54;;;;;;;;;;;;;;;27.77;42.13;98831.69;4392540;32;34466;-90
2022/07/30 00:16:21;;;;;;;;;;;;;;;27.56;42.71;98829.41;4390997;32;34430;-92
2022/07/30 00:18:49;;;;;;;;;;;;;;;27.86;41.98;98825.81;4378163;32;34642;-91
2022/07/30 00:21:17;;;;;;;;;;;;;;;26.76;44.58;98837.81;4391928;32;33776;-93
2022/07/30 00:24:02;;;;;;;;;;;;;;;27.69;42.69;98826.81;4380490;32;35098;-93
2022/07/30 00:26:30;;;;;;;;;;;;;;;27.63;42.77;98828.06;4391163;32;34652;-91
2022/07/30 00:28:58;;;;;;;;;;;;;;;28.16;41.44;98817.66;4378048;32;33599;-92
2022/07/30 00:31:27;;;;;;;;;;;;;;;27.92;41.97;98827.22;4392632;32;35397;-89
2022/07/30 00:33:54;;;;;;;;;;;;;;;27.91;42.26;98818.38;4394305;32;34441;-89
2022/07/30 00:36:22;;;;;;;;;;;;;;;27.63;42.84;98816.56;4394445;32;34271;-91
2022/07/30 00:38:49;;;;;;;;;;;;;;;28.60;40.66;98814.78;4379716;32;33146;-93
2022/07/30 00:41:17;;;;;;;;;;;;;;;28.28;41.23;98813.34;4393432;32;33704;-91
2022/07/30 00:43:44;;;;;;;;;;;;;;;28.07;41.73;98811.13;4391857;32;33658;-90
2022/07/30 00:46:13;;;;;;;;;;;;;;;28.15;41.60;98810.63;4392113;32;34139;-93
2022/07/30 00:48:41;;;;;;;;;;;;;;;27.22;43.48;98816.47;4393054;32;33342;-96
2022/07/30 00:51:09;;;;;;;;;;;;;;;28.04;41.74;98808.66;4392748;32;34070;-92
2022/07/30 00:53:38;;;;;;;;;;;;;;;28.07;41.49;98805.78;4393093;32;34263;-93
2022/07/30 00:56:05;;;;;;;;;;;;;;;27.98;41.77;98801.03;4379567;32;34146;-94
2022/07/30 00:58:33;;;;;;;;;;;;;;;27.55;42.55;98809.06;4393110;32;33579;-88
2022/07/30 01:01:01;;;;;;;;;;;;;;;27.09;43.84;98822.50;4393617;32;32490;-90
2022/07/30 01:03:28;;;;;;;;;;;;;;;27.27;43.31;98814.38;4393189;32;34086;-90
2022/07/30 01:05:55;;;;;;;;;;;;;;;27.43;42.81;98815.16;4392326;32;34320;-92
2022/07/30 01:08:23;;;;;;;;;;;;;;;27.54;42.77;98812.69;4392709;32;34331;-89
2022/07/30 01:10:50;;;;;;;;;;;;;;;27.33;43.27;98822.00;4379147;32;34972;-90
2022/07/30 01:13:18;;;;;;;;;;;;;;;26.67;44.79;98820.59;4378092;32;34461;-91
2022/07/30 01:15:46;;;;;;;;;;;;;;;26.44;45.26;98833.41;4394302;32;35072;-91
2022/07/30 01:18:14;;;;;;;;;;;;;;;27.46;43.11;98824.75;4379732;32;33428;-91
2022/07/30 01:20:47;;;;;;;;;;;;;;;26.60;44.97;98820.09;4378948;32;34214;-93
2022/07/30 01:23:22;;;;;;;;;;;;;;;26.80;44.59;98826.06;4379731;32;34509;-91
2022/07/30 01:26:02;;;;;;;;;;;;;;;26.68;45.08;98815.19;4393026;32;34393;-90
2022/07/30 01:28:36;;;;;;;;;;;;;;;26.82;44.84;98818.81;4378863;32;33708;-95
2022/07/30 01:31:05;;;;;;;;;;;;;;;28.00;42.06;98808.94;4380624;32;33834;-92
2022/07/30 01:33:33;;;;;;;;;;;;;;;27.00;44.23;98809.75;4379586;32;35139;-92
2022/07/30 01:36:00;;;;;;;;;;;;;;;27.45;43.31;98813.25;4393026;32;34443;-92
2022/07/30 01:38:28;;;;;;;;;;;;;;;27.60;43.07;98809.63;4379435;32;33777;-95
2022/07/30 01:41:01;;;;;;;;;;;;;;;28.74;40.46;98812.97;4380528;32;34994;-93
2022/07/30 01:43:28;;;;;;;;;;;;;;;28.58;40.57;98811.34;4378738;32;34354;-91
2022/07/30 01:45:56;;;;;;;;;;;;;;;28.62;40.58;98810.16;4392893;32;34217;-92
2022/07/30 01:48:23;;;;;;;;;;;;;;;28.72;40.32;98809.56;4386922;32;33533;-93
2022/07/30 01:50:51;;;;;;;;;;;;;;;29.61;38.50;98801.62;4392286;32;34193;-90
2022/07/30 01:53:20;;;;;;;;;;;;;;;29.50;38.63;98796.16;4378691;32;34394;-88
2022/07/30 01:55:47;;;;;;;;;;;;;;;30.06;37.52;98797.44;4378562;32;34523;-91
2022/07/30 01:58:15;;;;;;;;;;;;;;;28.30;40.95;98800.78;4378633;32;33512;-90
2022/07/30 02:00:43;;;;;;;;;;;;;;;29.13;39.40;98788.06;4378998;32;35023;-91
2022/07/30 02:03:11;;;;;;;;;;;;;;;28.18;41.58;98790.88;4379065;32;35330;-90
2022/07/30 02:05:39;;;;;;;;;;;;;;;28.59;40.63;98786.38;4378601;32;34096;-91
2022/07/30 02:08:07;;;;;;;;;;;;;;;27.24;43.60;98778.19;4378391;32;33672;-92
2022/07/30 02:10:43;;;;;;;;;;;;;;;27.43;43.50;98775.22;4392292;32;35158;-91
2022/07/30 02:13:13;;;;;;;;;;;;;;;26.69;45.45;98782.31;4379214;32;34252;-92
2022/07/30 02:15:41;;;;;;;;;;;;;;;27.44;43.52;98774.28;4380055;32;34187;-92
2022/07/30 02:18:17;;;;;;;;;;;;;;;27.08;44.50;98775.53;4392845;32;33538;-93
2022/07/30 02:20:55;;;;;;;;;;;;;;;27.16;44.22;98767.13;4380958;32;34238;-89
2022/07/30 02:23:22;;;;;;;;;;;;;;;26.88;44.84;98771.44;4378819;32;35180;-90
2022/07/30 02:25:51;;;;;;;;;;;;;;;27.61;43.27;98752.75;4393295;32;34255;-94
2022/07/30 02:28:19;;;;;;;;;;;;;;;27.06;44.61;98748.19;4378972;32;33353;-93
2022/07/30 02:30:49;;;;;;;;;;;;;;;26.11;46.98;98753.81;4390990;32;33747;-93
2022/07/30 02:33:23;;;;;;;;;;;;;;;26.24;46.66;98745.97;4380263;32;35222;-92
2022/07/30 02:35:51;;;;;;;;;;;;;;;26.69;45.75;98745.09;4367470;32;35209;-90
2022/07/30 02:38:19;;;;;;;;;;;;;;;26.80;45.38;98731.16;4379743;32;33745;-92
2022/07/30 02:40:47;;;;;;;;;;;;;;;26.81;45.32;98742.66;4378823;32;35161;-94
2022/07/30 02:43:15;;;;;;;;;;;;;;;26.85;45.16;98741.50;4379090;32;34265;-93
2022/07/30 02:45:43;;;;;;;;;;;;;;;26.89;45.18;98741.22;4392450;32;34207;-89
2022/07/30 02:48:10;;;;;;;;;;;;;;;26.78;45.49;98735.69;4378959;32;33632;-92
2022/07/30 02:50:59;;;;;;;;;;;;;;;26.93;45.26;98741.91;4392569;32;34315;-89
2022/07/30 02:53:26;;;;;;;;;;;;;;;25.64;48.28;98744.00;4391954;32;34545;-90
2022/07/30 02:55:54;;;;;;;;;;;;;;;25.33;49.10;98741.34;4391439;32;34331;-90
2022/07/30 02:58:22;;;;;;;;;;;;;;;25.68;48.56;98740.28;4378307;32;33905;-89
2022/07/30 03:00:50;;;;;;;;;;;;;;;26.12;47.11;98739.56;4378191;32;33606;-92
2022/07/30 03:03:19;;;;;;;;;;;;;;;26.63;45.89;98747.25;4378768;32;34046;-89
2022/07/30 03:05:48;;;;;;;;;;;;;;;26.44;46.49;98742.13;4391806;32;35375;-91
2022/07/30 03:08:16;;;;;;;;;;;;;;;27.11;44.61;98745.28;4391670;32;33161;-92
2022/07/30 03:10:47;;;;;;;;;;;;;;;27.96;42.90;98736.34;4378150;32;33232;-91
2022/07/30 03:13:14;;;;;;;;;;;;;;;27.32;43.92;98745.75;4378906;32;33834;-91
2022/07/30 03:15:43;;;;;;;;;;;;;;;27.29;44.25;98740.62;4378814;32;33977;-89
2022/07/30 03:18:11;;;;;;;;;;;;;;;26.20;46.76;98729.34;4377659;32;33586;-91
2022/07/30 03:20:39;;;;;;;;;;;;;;;27.02;45.00;98730.72;4378743;32;34513;-91
2022/07/30 03:23:07;;;;;;;;;;;;;;;26.83;45.35;98730.13;4391425;32;34799;-93
2022/07/30 03:25:34;;;;;;;;;;;;;;;27.20;44.57;98733.19;4377989;32;35312;-91
2022/07/30 03:28:02;;;;;;;;;;;;;;;27.65;43.53;98726.78;4393177;32;34002;-88
2022/07/30 03:30:30;;;;;;;;;;;;;;;27.88;42.90;98728.84;4392386;32;34092;-94
2022/07/30 03:32:57;;;;;;;;;;;;;;;27.36;44.02;98729.50;4390787;32;33917;-92
2022/07/30 03:35:25;;;;;;;;;;;;;;;27.50;43.93;98727.75;4377420;32;34465;-93
2022/07/30 03:37:53;;;;;;;;;;;;;;;27.60;43.49;98731.53;4364764;32;33754;-92
2022/07/30 03:40:21;;;;;;;;;;;;;;;27.91;42.89;98733.09;4367007;32;33925;-94
2022/07/30 03:42:49;;;;;;;;;;;;;;;26.93;45.13;98731.25;4393191;32;35352;-92
2022/07/30 03:45:17;;;;;;;;;;;;;;;26.50;46.20;98727.69;4392197;32;34214;-93
2022/07/30 03:47:44;;;;;;;;;;;;;;;26.84;45.50;98731.81;4379504;32;33910;-92
2022/07/30 03:50:12;;;;;;;;;;;;;;;27.30;44.54;98729.03;4378669;32;35039;-91
2022/07/30 03:52:40;;;;;;;;;;;;;;;26.89;45.46;98725.25;4378846;32;33755;-91
2022/07/30 03:55:08;;;;;;;;;;;;;;;26.95;45.27;98734.69;4367583;32;33136;-89
2022/07/30 03:57:52;;;;;;;;;;;;;;;26.81;45.73;98737.31;4393348;32;33417;-89
2022/07/30 04:00:20;;;;;;;;;;;;;;;26.92;45.26;98740.19;4339674;32;801682;-93
2022/07/30 04:02:48;;;;;;;;;;;;;;;27.40;44.34;98735.47;4364189;32;33795;-94
2022/07/30 04:05:16;;;;;;;;;;;;;;;27.94;43.04;98732.91;4377622;32;35208;-90
2022/07/30 04:07:43;;;;;;;;;;;;;;;27.05;45.02;98724.31;4377596;32;33619;-94
2022/07/30 04:10:12;;;;;;;;;;;;;;;27.58;43.74;98717.50;4380084;32;34511;-90
2022/07/30 04:12:41;;;;;;;;;;;;;;;27.63;43.65;98726.88;4363811;32;32987;-95
2022/07/30 04:15:10;;;;;;;;;;;;;;;28.21;42.37;98721.41;4363557;32;34359;-94
2022/07/30 04:17:58;;;;;;;;;;;;;;;27.68;43.51;98723.06;4377941;32;33696;-95
2022/07/30 04:20:27;;;;;;;;;;;;;;;27.10;44.72;98725.75;4365102;32;35169;-93
2022/07/30 04:22:54;;;;;;;;;;;;;;;27.85;43.15;98733.53;4363777;32;33745;-92
2022/07/30 04:25:22;;;;;;;;;;;;;;;28.13;42.51;98736.06;4363859;32;34287;-93
2022/07/30 04:27:50;;;;;;;;;;;;;;;28.20;42.25;98738.34;4364514;32;34392;-90
2022/07/30 04:30:32;;;;;;;;;;;;;;;27.51;43.93;98738.31;4375660;32;34108;-90
2022/07/30 04:32:59;;;;;;;;;;;;;;;28.13;42.66;98738.75;4376076;32;34503;-91
2022/07/30 04:35:32;;;;;;;;;;;;;;;26.95;45.44;98749.81;4376541;32;34466;-85
2022/07/30 04:38:18;;;;;;;;;;;;;;;26.91;45.39;98755.31;4351057;32;34083;-85
2022/07/30 04:40:46;;;;;;;;;;;;;;;27.77;43.59;98751.78;4361578;32;34087;-89
2022/07/30 04:43:14;;;;;;;;;;;;;;;27.32;44.61;98756.41;4362550;32;34080;-91
2022/07/30 04:45:42;;;;;;;;;;;;;;;27.67;43.97;98755.97;4351872;32;34564;-90
2022/07/30 04:48:09;;;;;;;;;;;;;;;27.85;43.51;98763.69;4373433;32;33652;-92
2022/07/30 04:50:40;;;;;;;;;;;;;;;27.86;43.36;98761.88;4377084;32;34039;-92
2022/07/30 04:53:08;;;;;;;;;;;;;;;28.01;43.13;98771.53;4376147;32;35259;-90
2022/07/30 04:55:37;;;;;;;;;;;;;;;28.42;42.22;98768.00;4362619;32;35471;-90
2022/07/30 04:58:05;;;;;;;;;;;;;;;27.92;43.51;98768.59;4362636;32;34038;-88
2022/07/30 05:00:33;;;;;;;;;;;;;;;28.73;41.62;98774.78;4371488;32;34148;-90
2022/07/30 05:03:07;;;;;;;;;;;;;;;28.69;41.58;98769.75;4390390;32;34423;-89
2022/07/30 05:05:35;;;;;;;;;;;;;;;28.93;40.91;98773.41;4377184;32;35202;-89
2022/07/30 05:08:02;;;;;;;;;;;;;;;28.99;40.91;98782.84;4376959;32;34793;-89
2022/07/30 05:10:30;;;;;;;;;;;;;;;29.28;40.42;98776.34;4377261;32;33723;-90
2022/07/30 05:12:58;;;;;;;;;;;;;;;29.45;39.90;98767.13;4390747;32;34227;-91
2022/07/30 05:15:25;;;;;;;;;;;;;;;29.64;39.49;98784.53;4390614;32;34288;-90
2022/07/30 05:18:04;;;;;;;;;;;;;;;29.58;39.56;98784.00;4377775;32;34208;-87
2022/07/30 05:20:32;;;;;;;;;;;;;;;29.08;40.88;98783.03;4390663;32;34117;-88
2022/07/30 05:23:01;;;;;;;;;;;;;;;28.77;41.30;98786.09;4390616;32;33736;-91
2022/07/30 05:25:28;;;;;;;;;;;;;;;28.65;41.71;98778.94;4376828;32;35235;-89
2022/07/30 05:27:57;;;;;;;;;;;;;;;29.31;40.36;98777.91;4390543;32;34275;-90
2022/07/30 05:30:25;;;;;;;;;;;;;;;28.71;41.51;98778.50;4376940;32;34756;-89
2022/07/30 05:32:55;;;;;;;;;;;;;;;28.34;42.72;98780.94;4390146;32;33669;-86
2022/07/30 05:35:22;;;;;;;;;;;;;;;28.83;41.66;98777.69;4390110;32;34059;-88
2022/07/30 05:37:49;;;;;;;;;;;;;;;28.54;42.36;98779.66;4390249;32;33090;-89
2022/07/30 05:40:18;;;;;;;;;;;;;;;29.37;40.51;98772.16;4390360;32;34471;-89
2022/07/30 05:42:48;;;;;;;;;;;;;;;29.40;40.33;98773.72;4390369;32;34175;-90
2022/07/30 05:45:16;;;;;;;;;;;;;;;28.80;41.89;98783.22;4391573;32;34433;-87
2022/07/30 05:47:43;;;;;;;;;;;;;;;29.04;41.37;98778.88;4380859;32;34562;-91
2022/07/30 05:50:11;;;;;;;;;;;;;;;29.42;40.76;98786.03;4376547;32;33823;-86
2022/07/30 05:52:39;;;;;;;;;;;;;;;29.39;40.82;98786.25;4377118;32;34383;-91
2022/07/30 05:55:08;;;;;;;;;;;;;;;28.42;42.43;98783.13;4379731;32;34264;-89
2022/07/30 05:57:37;;;;;;;;;;;;;;;29.37;40.56;98790.00;4377037;32;32224;-88
2022/07/30 06:00:05;;;;;;;;;;;;;;;28.46;42.45;98780.16;4375573;32;34966;-88
2022/07/30 06:02:42;;;;;;;;;;;;;;;29.06;41.32;98789.47;4380865;32;34457;-86
2022/07/30 06:05:11;;;;;;;;;;;;;;;29.66;39.92;98786.12;4378289;32;34793;-84
2022/07/30 06:07:39;;;;;;;;;;;;;;;29.72;40.24;98792.84;4391976;32;33749;-84
2022/07/30 06:10:07;;;;;;;;;;;;;;;30.20;39.07;98798.31;4377902;32;34229;-84
2022/07/30 06:12:35;;;;;;;;;;;;;;;30.44;38.65;98796.47;4391592;32;35157;-85
2022/07/30 06:15:03;;;;;;;;;;;;;;;29.70;40.13;98814.34;4378057;32;35276;-87
2022/07/30 06:17:31;;;;;;;;;;;;;;;30.02;39.28;98806.66;4380066;32;33537;-88
2022/07/30 06:20:09;;;;;;;;;;;;;;;30.39;38.69;98804.00;4377872;32;34468;-90
2022/07/30 06:22:39;;;;;;;;;;;;;;;30.13;39.07;98803.22;4365608;32;33222;-90
2022/07/30 06:25:08;;;;;;;;;;;;;;;30.47;38.54;98796.25;4365338;32;34065;-91
2022/07/30 06:27:35;;;;;;;;;;;;;;;30.41;38.62;98807.38;4390725;32;34256;-90
2022/07/30 06:30:07;;;;;;;;;;;;;;;30.23;39.36;98806.06;4377922;32;34010;-87
2022/07/30 06:32:35;;;;;;;;;;;;;;;30.07;39.04;98806.31;4390987;32;34156;-88
2022/07/30 06:35:02;;;;;;;;;;;;;;;30.70;38.39;98815.91;4377882;32;33934;-90
2022/07/30 06:37:31;;;;;;;;;;;;;;;30.66;37.91;98810.91;4391234;32;33137;-94
2022/07/30 06:40:20;;;;;;;;;;;;;;;30.83;38.10;98809.66;4379060;32;33495;-89
2022/07/30 06:42:48;;;;;;;;;;;;;;;30.66;37.90;98811.75;4391482;32;34705;-90
2022/07/30 06:45:17;;;;;;;;;;;;;;;29.74;39.84;98823.00;4391543;32;34525;-91
2022/07/30 06:47:48;;;;;;;;;;;;;;;30.06;39.31;98824.19;4391358;32;33130;-90
2022/07/30 06:50:19;;;;;;;;;;;;;;;29.74;39.63;98823.00;4390328;32;33905;-90
2022/07/30 06:52:46;;;;;;;;;;;;;;;29.09;40.93;98830.16;4389932;32;35155;-91
2022/07/30 06:55:13;;;;;;;;;;;;;;;30.07;39.29;98819.69;4391544;32;35152;-91
2022/07/30 06:57:41;;;;;;;;;;;;;;;30.84;37.89;98808.69;4391298;32;33663;-91
2022/07/30 07:00:10;;;;;;;;;;;;;;;30.84;37.79;98803.31;4391317;32;34861;-92
2022/07/30 07:02:38;;;;;;;;;;;;;;;31.24;37.14;98795.75;4389625;32;35179;-91
2022/07/30 07:05:06;;;;;;;;;;;;;;;30.61;38.46;98808.59;4375558;32;34318;-88
2022/07/30 07:07:34;;;;;;;;;;;;;;;31.17;37.49;98799.88;4390702;32;34460;-91
2022/07/30 07:10:09;;;;;;;;;;;;;;;31.36;37.20;98799.31;4374530;32;33039;-90
2022/07/30 07:12:38;;;;;;;;;;;;;;;32.08;36.00;98794.41;4375179;32;34029;-88
2022/07/30 07:15:06;;;;;;;;;;;;;;;31.42;37.44;98797.00;4377820;32;34354;-88
2022/07/30 07:17:33;;;;;;;;;;;;;;;31.29;37.17;98808.78;4390825;32;33720;-92
2022/07/30 07:20:05;;;;;;;;;;;;;;;31.16;37.55;98799.03;4391298;32;32398;-91
2022/07/30 07:22:34;;;;;;;;;;;;;;;31.31;37.21;98788.97;4391245;32;34872;-90
2022/07/30 07:25:01;;;;;;;;;;;;;;;30.47;38.48;98792.72;4389801;32;34894;-89
2022/07/30 07:27:32;;;;;;;;;;;;;;;30.92;37.90;98785.72;4391335;32;34352;-88
2022/07/30 07:29:59;;;;;;;;;;;;;;;31.88;36.99;98779.09;4377339;32;34627;-90
2022/07/30 07:32:32;;;;;;;;;;;;;;;31.66;37.26;98774.59;4390577;32;34068;-91
2022/07/30 07:35:00;;;;;;;;;;;;;;;32.38;35.64;98791.03;4392094;32;34339;-90
2022/07/30 07:37:27;;;;;;;;;;;;;;;32.68;34.79;98800.22;4378243;32;33118;-89
2022/07/30 07:39:55;;;;;;;;;;;;;;;31.67;36.17;98797.72;4366178;32;34701;-91
2022/07/30 07:42:22;;;;;;;;;;;;;;;31.89;36.03;98803.09;4378081;32;35228;-90
2022/07/30 07:44:50;;;;;;;;;;;;;;;30.32;38.37;98810.75;4391760;32;33693;-91
2022/07/30 07:47:18;;;;;;;;;;;;;;;30.45;38.47;98814.22;4391212;32;33701;-90
2022/07/30 07:49:46;;;;;;;;;;;;;;;31.15;37.11;98820.56;4391814;32;34073;-90
2022/07/30 07:52:13;;;;;;;;;;;;;;;32.07;35.89;98824.91;4377158;32;33944;-91
2022/07/30 07:54:42;;;;;;;;;;;;;;;32.25;35.33;98832.44;4391797;32;34120;-90
2022/07/30 07:57:10;;;;;;;;;;;;;;;31.95;35.55;98825.91;4389870;32;34348;-90
2022/07/30 07:59:41;;;;;;;;;;;;;;;31.30;36.25;98832.81;4375937;32;34388;-88
2022/07/30 08:02:09;;;;;;;;;;;;;;;30.91;37.15;98825.97;4369012;32;34146;-89
2022/07/30 08:04:38;;;;;;;;;;;;;;;31.32;36.88;98833.53;4389390;32;35240;-92
2022/07/30 08:07:18;;;;;;;;;;;;;;;32.03;35.65;98825.28;4390051;32;33391;-91
2022/07/30 08:09:47;;;;;;;;;;;;;;;31.67;36.24;98830.78;4389197;32;34219;-93
2022/07/30 08:12:15;;;;;;;;;;;;;;;32.50;34.93;98836.63;4389166;32;34215;-93
2022/07/30 08:14:44;;;;;;;;;;;;;;;31.99;36.03;98846.12;4389112;32;33956;-92
2022/07/30 08:17:13;;;;;;;;;;;;;;;32.03;35.22;98844.03;4390886;32;33066;-92
2022/07/30 08:19:52;;;;;;;;;;;;;;;31.17;37.05;98850.75;4376689;32;32908;-91
2022/07/30 08:22:20;;;;;;;;;;;;;;;31.50;36.87;98853.53;4390962;32;35218;-90
2022/07/30 08:24:48;;;;;;;;;;;;;;;30.96;37.66;98847.91;4389429;32;34985;-92
2022/07/30 08:27:15;;;;;;;;;;;;;;;30.92;37.41;98851.81;4390720;32;33683;-93
2022/07/30 08:29:43;;;;;;;;;;;;;;;31.08;37.01;98852.31;4390528;32;34116;-92
2022/07/30 08:32:10;;;;;;;;;;;;;;;30.90;37.54;98848.38;4377080;32;35250;-91
2022/07/30 08:34:38;;;;;;;;;;;;;;;31.12;37.35;98853.78;4390745;32;34296;-94
2022/07/30 08:37:06;;;;;;;;;;;;;;;31.37;36.44;98855.47;4390745;32;33828;-92
2022/07/30 08:39:33;;;;;;;;;;;;;;;31.44;36.44;98856.69;4390543;32;33702;-93
2022/07/30 08:42:06;;;;;;;;;;;;;;;32.06;35.45;98847.34;4390249;32;34098;-93
2022/07/30 08:44:33;;;;;;;;;;;;;;;30.98;37.05;98854.84;4375952;32;34065;-93
2022/07/30 08:47:01;;;;;;;;;;;;;;;30.53;37.94;98854.66;4376832;32;34364;-90
2022/07/30 08:49:31;;;;;;;;;;;;;;;31.28;36.75;98861.50;4365357;32;35070;-93
2022/07/30 08:51:59;;;;;;;;;;;;;;;31.83;35.40;98851.84;4390507;32;32082;-91
2022/07/30 08:54:28;;;;;;;;;;;;;;;30.67;41.34;98866.97;4389992;32;34610;-91
2022/07/30 08:56:56;;;;;;;;;;;;;;;31.01;39.60;98870.66;4375876;32;33269;-93
2022/07/30 08:59:24;;;;;;;;;;;;;;;31.08;39.78;98868.38;4375887;32;33678;-87
2022/07/30 09:02:11;;;;;;;;;;;;;;;30.80;40.54;98877.66;4377219;32;34779;-93
2022/07/30 09:04:42;;;;;;;;;;;;;;;31.53;38.56;98876.56;4391429;32;34435;-94
2022/07/30 09:07:09;;;;;;;;;;;;;;;30.62;40.36;98874.50;4390646;32;34465;-94
2022/07/30 09:09:38;;;;;;;;;;;;;;;30.11;41.77;98871.13;4378161;32;35222;-92
2022/07/30 09:12:25;;;;;;;;;;;;;;;30.00;42.20;98870.09;4389865;32;35162;-94
2022/07/30 09:15:07;;;;;;;;;;;;;;;30.32;41.83;98861.56;4389799;32;34673;-93
2022/07/30 09:17:52;;;;;;;;;;;;;;;29.61;43.44;98867.56;4390930;32;34922;-91
2022/07/30 09:20:21;;;;;;;;;;;;;;;28.41;46.52;98864.06;4394114;32;35091;-94
2022/07/30 09:22:56;;;;;;;;;;;;;;;29.39;44.13;98869.03;4394910;32;33791;-94
2022/07/30 09:25:32;;;;;;;;;;;;;;;28.99;44.48;98863.75;4379304;32;34274;-96
2022/07/30 09:28:04;;;;;;;;;;;;;;;27.70;47.97;98857.00;4395556;32;34877;-95
2022/07/30 09:30:56;;;;;;;;;;;;;;;27.66;47.70;98867.00;4380438;32;33194;-95
2022/07/30 09:33:39;;;;;;;;;;;;;;;28.26;46.11;98877.44;4379335;32;33239;-95
2022/07/30 09:36:10;;;;;;;;;;;;;;;28.76;45.06;98886.63;4393337;32;34756;-92
2022/07/30 09:38:49;;;;;;;;;;;;;;;29.14;43.92;98893.03;4378579;32;34351;-90
2022/07/30 09:41:31;;;;;;;;;;;;;;;28.92;45.14;98918.47;4390643;32;34163;-93
2022/07/30 09:44:38;;;;;;;;;;;;;;;28.60;47.51;98944.56;4382243;32;33693;-93
2022/07/30 09:47:33;;;;;;;;;;;;;;;29.11;46.64;98914.59;4391620;32;33527;-91
2022/07/30 09:50:19;;;;;;;;;;;;;;;28.58;48.27;98883.34;4377849;32;32903;-92
2022/07/30 09:53:07;;;;;;;;;;;;;;;26.27;55.17;98875.16;4366829;32;34314;-93
2022/07/30 09:55:36;;;;;;;;;;;;;;;27.78;51.01;98863.59;4394668;32;34901;-94
2022/07/30 09:58:36;;;;;;;;;;;;;;;28.07;50.66;98864.41;4402925;32;33046;-94
2022/07/30 10:01:25;;;;;;;;;;;;;;;27.72;51.58;98865.75;4389419;32;33611;-94
2022/07/30 10:04:23;;;;;;;;;;;;;;;27.96;51.22;98861.59;4367835;32;34130;-94
2022/07/30 10:07:17;;;;;;;;;;;;;;;26.99;53.23;98868.38;4390609;32;33766;-94
2022/07/30 10:09:53;;;;;;;;;;;;;;;27.28;52.45;98867.53;4391085;32;34764;-93
2022/07/30 10:12:20;;;;;;;;;;;;;;;28.31;50.09;98866.47;4391826;32;33333;-94
2022/07/30 10:14:51;;;;;;;;;;;;;;;28.08;50.03;98873.28;4378377;32;34003;-94
2022/07/30 10:17:19;;;;;;;;;;;;;;;28.75;48.92;98881.37;4377767;32;34415;-94
2022/07/30 10:19:48;;;;;;;;;;;;;;;28.39;49.86;98877.50;4378017;32;33858;-93
2022/07/30 10:22:18;;;;;;;;;;;;;;;28.52;49.78;98870.41;4391711;32;32588;-93
2022/07/30 10:24:50;;;;;;;;;;;;;;;28.02;50.72;98879.81;4365728;32;32560;-93
2022/07/30 10:27:24;;;;;;;;;;;;;;;29.13;47.92;98878.81;4378384;32;34383;-93
2022/07/30 10:29:54;;;;;;;;;;;;;;;29.19;47.93;98878.41;4391578;32;34384;-93
2022/07/30 10:32:21;;;;;;;;;;;;;;;28.97;47.94;98886.13;4377514;32;33707;-92
2022/07/30 10:34:57;;;;;;;;;;;;;;;28.74;48.94;98887.66;4379425;32;33673;-93
2022/07/30 10:37:25;;;;;;;;;;;;;;;27.71;51.28;98891.53;4378074;32;34700;-92
2022/07/30 10:39:53;;;;;;;;;;;;;;;27.01;53.60;98901.94;4391501;32;34073;-95
2022/07/30 10:42:30;;;;;;;;;;;;;;;27.41;52.81;98896.91;4391816;32;34820;-95
2022/07/30 10:45:11;;;;;;;;;;;;;;;27.14;53.43;98886.13;4391601;32;33791;-94
2022/07/30 10:47:46;;;;;;;;;;;;;;;26.33;55.97;98891.62;4377174;32;33984;-93
2022/07/30 10:50:16;;;;;;;;;;;;;;;27.31;53.99;98893.09;4377854;32;33964;-93
2022/07/30 10:52:49;;;;;;;;;;;;;;;26.43;56.75;98894.59;4378341;32;33763;-94
2022/07/30 10:55:22;;;;;;;;;;;;;;;28.02;51.12;98887.81;4391405;32;34604;-91
2022/07/30 10:58:12;;;;;;;;;;;;;;;28.38;50.67;98883.81;4391099;32;34442;-94
2022/07/30 11:00:41;;;;;;;;;;;;;;;28.36;50.89;98877.66;4377587;32;34001;-93
2022/07/30 11:03:17;;;;;;;;;;;;;;;28.84;50.08;98868.28;4390982;32;33677;-93
2022/07/30 11:05:46;;;;;;;;;;;;;;;28.80;50.83;98869.44;4377753;32;34147;-94
2022/07/30 11:08:30;;;;;;;;;;;;;;;28.48;51.44;98858.22;4377313;32;33879;-91
2022/07/30 11:11:03;;;;;;;;;;;;;;;28.40;52.43;98854.34;4377910;32;34057;-91
2022/07/30 11:13:55;;;;;;;;;;;;;;;28.19;52.30;98843.25;4390035;32;33299;-92
2022/07/30 11:16:23;;;;;;;;;;;;;;;28.73;51.07;98840.63;4377478;32;33902;-93
2022/07/30 11:19:06;;;;;;;;;;;;;;;28.66;51.89;98836.63;4390332;32;35185;-93
2022/07/30 11:22:11;;;;;;;;;;;;;;;28.86;51.77;98833.47;4391621;32;34035;-92
2022/07/30 11:24:42;;;;;;;;;;;;;;;28.44;52.23;98819.37;4381586;32;33357;-96
2022/07/30 11:27:40;;;;;;;;;;;;;;;27.19;55.81;98819.31;4378722;32;33932;-91
2022/07/30 11:30:14;;;;;;;;;;;;;;;27.85;53.71;98816.12;4391698;32;33738;-96
2022/07/30 11:33:02;;;;;;;;;;;;;;;27.44;54.99;98822.19;4391185;32;34435;-92
2022/07/30 11:35:31;;;;;;;;;;;;;;;27.49;55.97;98825.41;4391637;32;33204;-94
2022/07/30 11:38:01;;;;;;;;;;;;;;;27.23;55.39;98820.84;4390728;32;34985;-94
2022/07/30 11:40:40;;;;;;;;;;;;;;;27.54;54.32;98810.03;4389734;32;33901;-93
2022/07/30 11:43:17;;;;;;;;;;;;;;;28.12;52.81;98806.34;4377228;32;33553;-89
2022/07/30 11:45:45;;;;;;;;;;;;;;;28.25;54.00;98818.84;4390917;32;34371;-92
2022/07/30 11:48:14;;;;;;;;;;;;;;;28.66;53.14;98812.63;4377100;32;34188;-90
2022/07/30 11:50:41;;;;;;;;;;;;;;;28.11;55.53;98806.44;4377132;32;34000;-91
2022/07/30 11:53:10;;;;;;;;;;;;;;;28.29;54.83;98810.56;4377546;32;35034;-92
2022/07/30 11:55:38;;;;;;;;;;;;;;;28.50;53.87;98807.47;4377471;32;33168;-96
2022/07/30 11:58:07;;;;;;;;;;;;;;;28.24;55.60;98807.34;4391272;32;34866;-96
2022/07/30 12:00:38;;;;;;;;;;;;;;;28.02;53.73;98791.88;4391850;32;35272;-94
2022/07/30 12:03:10;;;;;;;;;;;;;;;27.69;54.30;98794.00;4391190;32;35112;-94
2022/07/30 12:05:38;;;;;;;;;;;;;;;28.35;53.14;98788.84;4377505;32;33250;-90
2022/07/30 12:08:05;;;;;;;;;;;;;;;28.33;53.57;98789.87;4377130;32;33368;-90
2022/07/30 12:10:34;;;;;;;;;;;;;;;27.88;53.58;98789.25;4373635;32;34454;-91
2022/07/30 12:13:15;;;;;;;;;;;;;;;28.07;53.08;98784.47;4391041;32;33854;-92
2022/07/30 12:15:43;;;;;;;;;;;;;;;28.16;53.47;98780.34;4390777;32;33315;-92
2022/07/30 12:18:12;;;;;;;;;;;;;;;28.74;50.56;98772.94;4377150;32;35507;-92
2022/07/30 12:20:56;;;;;;;;;;;;;;;28.13;52.29;98772.53;4389962;32;34452;-91
2022/07/30 12:23:25;;;;;;;;;;;;;;;27.67;53.14;98759.50;4377660;32;34092;-95
2022/07/30 12:25:52;;;;;;;;;;;;;;;27.16;54.28;98754.69;4390588;32;33318;-93
2022/07/30 12:28:21;;;;;;;;;;;;;;;27.46;54.56;98759.03;4377387;32;33896;-91
2022/07/30 12:30:49;;;;;;;;;;;;;;;28.36;52.92;98755.88;4396332;32;34185;-92
2022/07/30 12:33:17;;;;;;;;;;;;;;;27.85;53.15;98752.19;4378026;32;33887;-91
2022/07/30 12:35:48;;;;;;;;;;;;;;;27.04;54.93;98760.72;4390801;32;33789;-96
2022/07/30 12:38:16;;;;;;;;;;;;;;;27.46;53.92;98767.03;4388933;32;35166;-94
2022/07/30 12:41:02;;;;;;;;;;;;;;;27.01;55.55;98766.25;4378402;32;34277;-92
2022/07/30 12:43:49;;;;;;;;;;;;;;;27.07;55.82;98765.84;4393667;32;35111;-92
2022/07/30 12:46:21;;;;;;;;;;;;;;;27.68;53.07;98760.34;4392358;32;33409;-90
2022/07/30 12:48:50;;;;;;;;;;;;;;;27.43;54.70;98772.56;4392020;32;33983;-94
2022/07/30 12:51:28;;;;;;;;;;;;;;;28.23;52.78;98765.66;4406486;32;35016;-95
2022/07/30 12:54:01;;;;;;;;;;;;;;;27.53;52.88;98765.69;4405597;32;34084;-91
2022/07/30 12:56:28;;;;;;;;;;;;;;;27.85;52.31;98762.84;4403081;32;33451;-91
2022/07/30 12:58:56;;;;;;;;;;;;;;;28.32;51.35;98761.53;4390387;32;34897;-92
2022/07/30 13:01:38;;;;;;;;;;;;;;;27.84;51.86;98766.44;4377701;32;32784;-93
2022/07/30 13:04:05;;;;;;;;;;;;;;;27.13;53.01;98765.53;4375308;32;34041;-89
2022/07/30 13:06:33;;;;;;;;;;;;;;;28.28;49.79;98776.00;4366010;32;33470;-91
2022/07/30 13:09:01;;;;;;;;;;;;;;;28.38;51.16;98776.31;4390680;32;34273;-90